< Typhoon 197511 1975 Season Typhoon 197513 >
Typhoon 197512 (BETTY)
General InformationTrack Information on Google Maps || Disaster Info.ResourceGoogle EarthGE AnimationAtom FeedGeoJSON
Detalied Best Track (Time Zone = UTC)
Year Month Day Hour Lat. Long. Pressure (hPa) Wind (kt) Class Image Chart
1975 9 17 06 16.0 143.0 1006 0 2 -- Chart
1975 9 17 12 16.6 142.0 1006 0 2 -- Chart
1975 9 17 18 16.6 140.8 1006 0 2 -- Chart
1975 9 18 00 16.8 139.2 1004 0 9 -- Chart
1975 9 18 06 17.0 138.0 1002 0 9 -- Chart
1975 9 18 12 16.9 137.5 998 0 9 -- Chart
1975 9 18 18 16.6 137.2 994 0 9 -- Chart
1975 9 19 00 16.5 136.3 990 0 9 -- Chart
1975 9 19 06 16.7 135.6 990 0 9 -- Chart
1975 9 19 12 17.4 135.6 985 0 9 -- Chart
1975 9 19 18 18.3 135.6 985 0 9 -- Chart
1975 9 20 00 19.2 134.7 980 0 9 -- Chart
1975 9 20 06 19.8 133.5 980 0 9 -- Chart
1975 9 20 12 20.7 132.0 975 0 9 -- Chart
1975 9 20 18 21.3 130.6 975 0 9 -- Chart
1975 9 21 00 21.9 129.4 970 0 9 -- Chart
1975 9 21 06 22.5 127.7 960 0 9 -- Chart
1975 9 21 12 22.6 126.2 955 0 9 -- Chart
1975 9 21 18 22.7 124.8 950 0 9 -- Chart
1975 9 22 00 22.5 123.4 950 0 9 -- Chart
1975 9 22 06 22.6 122.0 950 0 9 -- Chart
1975 9 22 12 22.6 120.7 965 0 9 -- Chart
1975 9 22 18 22.7 119.8 975 0 9 -- Chart
1975 9 23 00 22.7 119.0 985 0 9 -- Chart
1975 9 23 06 23.2 118.0 985 0 9 -- Chart
1975 9 23 12 23.7 117.0 985 0 9 -- Chart
1975 9 23 18 23.5 115.5 992 0 2 -- Chart
1975 9 24 00 24.0 115.0 1002 0 2 -- Chart
Japan Meteorological Agency Best Track Data | Correction Date : 1989-06-01
< Typhoon 197511 1975 Season Typhoon 197513 >

Help